Time;durP1;ratioP1;P1;durP2;ratioP2;P2;SDS_P1;SDS_P2;PMS_P1;PMS_P2;Temp;Humidity;BMP_temperature;BMP_pressure;BME280_temperature;BME280_humidity;BME280_pressure;Samples;Min_cycle;Max_cycle;Signal;HPM_P1;HPM_P2
2023/05/07 00:02:25;;;;;;;;;;;;;;;2.74;95.43;102872.44;5074248;28;20353;-68
2023/05/07 00:04:51;;;;;;;;;;;;;;;2.73;95.47;102875.97;5073976;28;19920;-68
2023/05/07 00:07:17;;;;;;;;;;;;;;;2.72;94.59;102874.25;5073973;28;19944;-66
2023/05/07 00:09:43;;;;;;;;;;;;;;;2.69;94.49;102871.75;5074172;28;19961;-67
2023/05/07 00:12:08;;;;;;;;;;;;;;;2.64;94.60;102871.09;5073770;28;19916;-68
2023/05/07 00:14:33;;;;;;;;;;;;;;;2.59;95.02;102870.38;5074012;28;19979;-67
2023/05/07 00:16:59;;;;;;;;;;;;;;;2.59;94.52;102867.75;5073887;28;19922;-68
2023/05/07 00:19:24;;;;;;;;;;;;;;;2.56;95.34;102872.28;5073722;28;19912;-68
2023/05/07 00:21:49;;;;;;;;;;;;;;;2.56;95.00;102867.03;5073787;28;19919;-66
2023/05/07 00:24:15;;;;;;;;;;;;;;;2.57;94.32;102868.72;5073697;28;19963;-67
2023/05/07 00:26:40;;;;;;;;;;;;;;;2.55;94.54;102871.44;5073864;28;19913;-67
2023/05/07 00:29:06;;;;;;;;;;;;;;;2.52;94.36;102871.53;5073906;28;19965;-69
2023/05/07 00:31:31;;;;;;;;;;;;;;;2.48;94.83;102876.06;5073582;28;20244;-68
2023/05/07 00:33:56;;;;;;;;;;;;;;;2.53;95.00;102878.53;5073586;28;20237;-67
2023/05/07 00:36:22;;;;;;;;;;;;;;;2.59;94.85;102875.66;5073467;28;19912;-67
2023/05/07 00:38:47;;;;;;;;;;;;;;;2.70;94.59;102876.09;5073462;28;20391;-67
2023/05/07 00:41:12;;;;;;;;;;;;;;;2.82;94.69;102880.00;5073597;28;20038;-69
2023/05/07 00:43:37;;;;;;;;;;;;;;;2.91;93.76;102877.03;5073334;28;19955;-68
2023/05/07 00:46:03;;;;;;;;;;;;;;;2.98;93.74;102877.63;5073360;28;19948;-68
2023/05/07 00:48:30;;;;;;;;;;;;;;;3.02;94.49;102874.81;5073037;28;19916;-68
2023/05/07 00:50:56;;;;;;;;;;;;;;;3.06;93.82;102872.91;5073055;28;20288;-68
2023/05/07 00:53:21;;;;;;;;;;;;;;;3.09;94.43;102878.03;5073124;28;19912;-67
2023/05/07 00:55:48;;;;;;;;;;;;;;;3.11;93.43;102882.31;5073391;28;19912;-65
2023/05/07 00:58:13;;;;;;;;;;;;;;;3.14;92.60;102880.47;5073269;28;19919;-70
2023/05/07 01:00:38;;;;;;;;;;;;;;;3.16;93.63;102882.13;5072182;28;19913;-70
2023/05/07 01:03:04;;;;;;;;;;;;;;;3.20;92.74;102883.75;5073105;28;20356;-68
2023/05/07 01:05:30;;;;;;;;;;;;;;;3.21;92.84;102877.56;5072776;28;19913;-67
2023/05/07 01:07:56;;;;;;;;;;;;;;;3.25;nan;102883.56;5073169;28;20419;-68
2023/05/07 01:10:22;;;;;;;;;;;;;;;3.29;92.25;102880.72;5072978;28;20387;-67
2023/05/07 01:12:49;;;;;;;;;;;;;;;3.32;91.42;102877.97;5073052;28;19913;-67
2023/05/07 01:15:15;;;;;;;;;;;;;;;3.36;91.45;102879.53;5072821;28;19982;-67
2023/05/07 01:17:41;;;;;;;;;;;;;;;3.38;91.55;102879.47;5072277;28;20339;-70
2023/05/07 01:20:07;;;;;;;;;;;;;;;3.40;91.11;102873.22;5072720;28;20002;-67
2023/05/07 01:22:33;;;;;;;;;;;;;;;3.41;91.72;102880.19;5072514;28;19912;-67
2023/05/07 01:24:59;;;;;;;;;;;;;;;3.41;92.04;102880.19;5072876;28;19913;-69
2023/05/07 01:27:25;;;;;;;;;;;;;;;3.43;91.52;102888.03;5072766;28;19917;-69
2023/05/07 01:29:50;;;;;;;;;;;;;;;3.46;91.16;102887.03;5072665;28;19919;-67
2023/05/07 01:32:18;;;;;;;;;;;;;;;3.49;90.91;102887.78;5072560;28;20368;-68
2023/05/07 01:34:46;;;;;;;;;;;;;;;3.52;90.49;102886.81;5072620;28;19917;-67
2023/05/07 01:37:12;;;;;;;;;;;;;;;3.55;89.86;102898.06;5072948;28;19912;-68
2023/05/07 01:39:38;;;;;;;;;;;;;;;3.56;90.38;102889.25;5073247;28;19912;-67
2023/05/07 01:42:04;;;;;;;;;;;;;;;3.59;89.77;102890.88;5073910;28;20024;-67
2023/05/07 01:44:29;;;;;;;;;;;;;;;3.61;90.26;102894.31;5072565;28;20396;-69
2023/05/07 01:46:55;;;;;;;;;;;;;;;3.64;88.99;102896.81;5071168;28;20328;-69
2023/05/07 01:49:21;;;;;;;;;;;;;;;3.64;89.09;102894.19;5072252;28;19917;-68
2023/05/07 01:51:46;;;;;;;;;;;;;;;3.65;88.80;102895.88;5072590;28;19913;-68
2023/05/07 01:54:12;;;;;;;;;;;;;;;3.67;88.05;102904.56;5071089;28;19957;-69
2023/05/07 01:56:37;;;;;;;;;;;;;;;3.67;87.59;102897.53;5072420;28;19920;-69
2023/05/07 01:59:02;;;;;;;;;;;;;;;3.66;85.83;102894.97;5072383;28;20019;-69
2023/05/07 02:01:28;;;;;;;;;;;;;;;3.68;85.49;102893.13;5072352;28;20381;-67
2023/05/07 02:03:53;;;;;;;;;;;;;;;3.71;85.26;102901.75;5072144;28;20452;-69
2023/05/07 02:06:19;;;;;;;;;;;;;;;3.75;84.92;102894.56;5072151;28;19913;-68
2023/05/07 02:08:44;;;;;;;;;;;;;;;3.77;84.55;102907.69;5073274;28;20141;-67
2023/05/07 02:11:10;;;;;;;;;;;;;;;3.78;84.11;102906.78;5072568;28;19970;-67
2023/05/07 02:13:36;;;;;;;;;;;;;;;3.80;83.68;102903.16;5072142;28;19965;-67
2023/05/07 02:16:02;;;;;;;;;;;;;;;3.83;83.43;102903.00;5072019;28;19912;-68
2023/05/07 02:18:27;;;;;;;;;;;;;;;3.85;83.41;102901.16;5072039;28;20021;-66
2023/05/07 02:20:53;;;;;;;;;;;;;;;3.87;83.75;102904.59;5073019;28;20344;-67
2023/05/07 02:23:18;;;;;;;;;;;;;;;3.89;83.09;102908.00;5072458;28;19919;-66
2023/05/07 02:25:43;;;;;;;;;;;;;;;3.90;83.29;102899.19;5072304;28;20405;-70
2023/05/07 02:28:09;;;;;;;;;;;;;;;3.92;82.86;102907.88;5073018;28;19913;-67
2023/05/07 02:30:34;;;;;;;;;;;;;;;3.95;82.41;102902.47;5076456;28;19917;-71
2023/05/07 02:33:00;;;;;;;;;;;;;;;3.99;82.54;102909.31;5076818;28;19966;-68
2023/05/07 02:35:25;;;;;;;;;;;;;;;4.01;80.90;102903.97;5077479;28;19913;-69
2023/05/07 02:37:51;;;;;;;;;;;;;;;4.03;80.59;102894.19;5077024;28;19913;-66
2023/05/07 02:40:16;;;;;;;;;;;;;;;4.07;79.73;102913.41;5075857;28;20003;-68
2023/05/07 02:42:42;;;;;;;;;;;;;;;4.07;79.01;102905.50;5076368;28;19919;-66
2023/05/07 02:45:07;;;;;;;;;;;;;;;4.12;79.07;102898.22;5076225;28;20387;-68
2023/05/07 02:47:33;;;;;;;;;;;;;;;4.17;78.96;102893.59;5075497;28;19923;-69
2023/05/07 02:49:58;;;;;;;;;;;;;;;4.17;77.44;102896.25;5075569;28;19983;-69
2023/05/07 02:52:23;;;;;;;;;;;;;;;4.19;78.12;102918.13;5075790;28;19920;-67
2023/05/07 02:54:49;;;;;;;;;;;;;;;4.22;77.13;102925.91;5075567;28;20062;-69
2023/05/07 02:57:14;;;;;;;;;;;;;;;4.27;75.41;102929.19;5075464;28;19923;-68
2023/05/07 02:59:40;;;;;;;;;;;;;;;4.31;76.49;102928.09;5076351;28;20296;-66
2023/05/07 03:02:05;;;;;;;;;;;;;;;4.33;75.14;102919.19;5076443;28;19935;-67
2023/05/07 03:04:30;;;;;;;;;;;;;;;4.40;74.92;102926.84;5075170;28;19912;-68
2023/05/07 03:06:56;;;;;;;;;;;;;;;4.44;74.80;102931.91;5075541;28;19912;-68
2023/05/07 03:09:21;;;;;;;;;;;;;;;4.51;74.77;102922.78;5075477;28;19913;-69
2023/05/07 03:11:48;;;;;;;;;;;;;;;4.57;73.50;102930.41;5075337;28;19920;-66
2023/05/07 03:14:13;;;;;;;;;;;;;;;4.65;74.06;102927.44;5078923;28;19917;-65
2023/05/07 03:16:39;;;;;;;;;;;;;;;4.74;74.19;102928.78;5076824;28;19942;-68
2023/05/07 03:19:04;;;;;;;;;;;;;;;4.80;73.27;102923.22;5075833;28;19917;-66
2023/05/07 03:21:30;;;;;;;;;;;;;;;4.91;73.78;102932.31;5075423;28;19974;-69
2023/05/07 03:23:55;;;;;;;;;;;;;;;4.99;72.76;102929.34;5075048;28;19918;-69
2023/05/07 03:26:21;;;;;;;;;;;;;;;5.01;71.17;102924.84;5075046;28;20391;-68
2023/05/07 03:28:46;;;;;;;;;;;;;;;5.08;71.92;102926.25;5074982;28;19912;-68
2023/05/07 03:31:11;;;;;;;;;;;;;;;5.12;70.56;102935.72;5074902;28;20289;-69
2023/05/07 03:33:39;;;;;;;;;;;;;;;5.18;70.97;102934.56;5074619;28;19920;-69
2023/05/07 03:36:04;;;;;;;;;;;;;;;5.24;70.07;102929.88;5074829;28;20003;-68
2023/05/07 03:38:29;;;;;;;;;;;;;;;5.35;70.38;102931.09;5074570;28;19954;-69
2023/05/07 03:40:55;;;;;;;;;;;;;;;5.43;70.54;102932.44;5074383;28;19965;-67
2023/05/07 03:43:20;;;;;;;;;;;;;;;5.51;69.72;102932.06;5074798;28;20376;-68
2023/05/07 03:45:46;;;;;;;;;;;;;;;5.61;70.40;102930.66;5075280;28;20360;-68
2023/05/07 03:48:11;;;;;;;;;;;;;;;5.73;70.19;102927.38;5073558;28;20342;-67
2023/05/07 03:50:37;;;;;;;;;;;;;;;5.85;69.46;102928.56;5074572;28;19943;-68
2023/05/07 03:53:02;;;;;;;;;;;;;;;5.99;70.08;102933.16;5074513;28;20284;-69
2023/05/07 03:55:28;;;;;;;;;;;;;;;6.02;68.24;102939.13;5074778;28;19912;-68
2023/05/07 03:57:54;;;;;;;;;;;;;;;6.00;67.92;102941.00;5073872;28;20080;-66
2023/05/07 04:00:20;;;;;;;;;;;;;;;6.07;68.18;102952.13;5090952;28;19912;-67
2023/05/07 04:02:45;;;;;;;;;;;;;;;6.08;66.58;102948.56;5075634;28;20275;-66
2023/05/07 04:05:10;;;;;;;;;;;;;;;6.07;66.55;102946.81;5076268;28;19920;-66
2023/05/07 04:07:36;;;;;;;;;;;;;;;6.08;61.99;102940.63;5075400;28;19912;-68
2023/05/07 04:10:02;;;;;;;;;;;;;;;6.08;61.32;102954.72;5108452;28;19936;-69
2023/05/07 04:12:29;;;;;;;;;;;;;;;6.15;63.25;102950.81;5075902;28;19916;-68
2023/05/07 04:14:54;;;;;;;;;;;;;;;6.25;62.58;102953.81;5075488;28;19923;-68
2023/05/07 04:17:20;;;;;;;;;;;;;;;6.34;60.67;102948.03;5075929;28;19944;-66
2023/05/07 04:19:45;;;;;;;;;;;;;;;6.47;57.41;102957.03;5075191;28;20049;-65
2023/05/07 04:22:11;;;;;;;;;;;;;;;6.67;58.51;102953.31;5074398;28;19916;-68
2023/05/07 04:24:36;;;;;;;;;;;;;;;6.92;58.85;102951.94;5073671;28;19958;-68
2023/05/07 04:27:02;;;;;;;;;;;;;;;7.15;56.31;102960.31;5073878;28;19912;-67
2023/05/07 04:29:28;;;;;;;;;;;;;;;7.25;52.68;102963.31;5073812;28;20288;-68
2023/05/07 04:31:55;;;;;;;;;;;;;;;7.43;54.17;102964.03;5074171;28;19974;-68
2023/05/07 04:34:21;;;;;;;;;;;;;;;7.53;51.23;102957.28;5074174;28;19912;-66
2023/05/07 04:36:46;;;;;;;;;;;;;;;7.62;50.81;102961.19;5073597;28;20057;-67
2023/05/07 04:39:12;;;;;;;;;;;;;;;7.71;50.17;102968.59;5072278;28;20283;-67
2023/05/07 04:41:37;;;;;;;;;;;;;;;7.76;51.57;102964.72;5073371;28;19912;-67
2023/05/07 04:44:03;;;;;;;;;;;;;;;7.80;50.31;102967.19;5073239;28;19945;-67
2023/05/07 04:46:29;;;;;;;;;;;;;;;7.86;51.70;102972.16;5072863;28;20062;-69
2023/05/07 04:48:54;;;;;;;;;;;;;;;8.02;52.22;102975.56;5073334;28;20461;-67
2023/05/07 04:51:20;;;;;;;;;;;;;;;8.02;49.65;102978.22;5072563;28;19919;-69
2023/05/07 04:53:45;;;;;;;;;;;;;;;8.11;51.67;102984.81;5073065;28;20263;-67
2023/05/07 04:56:10;;;;;;;;;;;;;;;8.16;48.85;102985.38;5071871;28;19958;-67
2023/05/07 04:58:36;;;;;;;;;;;;;;;8.14;50.00;102972.19;5073215;28;19951;-68
2023/05/07 05:01:01;;;;;;;;;;;;;;;8.04;49.99;102982.50;5072865;28;20360;-68
2023/05/07 05:03:27;;;;;;;;;;;;;;;8.09;50.61;102976.91;5071705;28;19912;-66
2023/05/07 05:05:52;;;;;;;;;;;;;;;8.23;50.33;102982.25;5073051;28;20354;-67
2023/05/07 05:08:18;;;;;;;;;;;;;;;8.30;49.18;102988.88;5072592;28;19912;-69
2023/05/07 05:10:43;;;;;;;;;;;;;;;8.13;48.21;102990.88;5072967;28;19919;-68
2023/05/07 05:13:09;;;;;;;;;;;;;;;8.03;50.27;102985.25;5088725;28;20434;-72
2023/05/07 05:15:35;;;;;;;;;;;;;;;7.98;49.24;102984.66;5072699;28;20023;-68
2023/05/07 05:18:00;;;;;;;;;;;;;;;8.02;50.09;102980.88;5072914;28;19912;-67
2023/05/07 05:20:25;;;;;;;;;;;;;;;7.89;48.19;102983.44;5072806;28;20356;-66
2023/05/07 05:22:51;;;;;;;;;;;;;;;7.69;49.75;102986.38;5072777;28;19916;-66
2023/05/07 05:25:16;;;;;;;;;;;;;;;7.46;49.23;102987.72;5072679;28;19912;-67
2023/05/07 05:27:41;;;;;;;;;;;;;;;7.40;50.20;102985.41;5073057;28;19957;-68
2023/05/07 05:30:07;;;;;;;;;;;;;;;7.42;49.97;102983.53;5072350;28;19912;-69
2023/05/07 05:32:32;;;;;;;;;;;;;;;7.50;49.36;102986.59;5072707;28;19912;-70
2023/05/07 05:34:57;;;;;;;;;;;;;;;7.54;49.33;102993.44;5072608;28;20249;-67
2023/05/07 05:37:23;;;;;;;;;;;;;;;7.58;48.42;102989.69;5105102;28;19963;-66
2023/05/07 05:39:48;;;;;;;;;;;;;;;7.81;48.55;102990.13;5072578;28;19912;-68
2023/05/07 05:42:13;;;;;;;;;;;;;;;8.07;47.11;102994.72;5072512;28;19917;-68
2023/05/07 05:44:39;;;;;;;;;;;;;;;8.18;47.21;103000.25;5071285;28;20314;-68
2023/05/07 05:47:04;;;;;;;;;;;;;;;8.20;46.84;102995.72;5072506;28;20049;-69
2023/05/07 05:49:29;;;;;;;;;;;;;;;8.26;45.91;103002.44;5072504;28;19916;-68
2023/05/07 05:51:55;;;;;;;;;;;;;;;8.32;46.14;102994.09;5072630;28;20011;-67
2023/05/07 05:54:21;;;;;;;;;;;;;;;8.46;44.44;102994.16;5071142;28;20027;-68
2023/05/07 05:56:46;;;;;;;;;;;;;;;8.50;44.84;103000.13;5072230;28;19912;-67
2023/05/07 05:59:12;;;;;;;;;;;;;;;8.42;45.14;103002.41;5072198;28;20347;-66
2023/05/07 06:01:37;;;;;;;;;;;;;;;8.45;46.28;103004.88;5072125;28;20283;-67
2023/05/07 06:04:03;;;;;;;;;;;;;;;8.42;45.75;103002.41;5076434;28;19936;-66
2023/05/07 06:06:28;;;;;;;;;;;;;;;8.42;46.18;103002.41;5076581;28;20378;-69
2023/05/07 06:08:53;;;;;;;;;;;;;;;8.49;45.59;103001.94;5076459;28;20544;-69
2023/05/07 06:11:19;;;;;;;;;;;;;;;8.58;45.83;103009.31;5076309;28;19919;-67
2023/05/07 06:13:44;;;;;;;;;;;;;;;8.55;46.32;103008.66;5076133;28;19924;-66
2023/05/07 06:16:09;;;;;;;;;;;;;;;8.53;45.34;103005.25;5075995;28;19919;-68
2023/05/07 06:18:35;;;;;;;;;;;;;;;8.45;44.38;103007.53;5076216;28;20006;-69
2023/05/07 06:21:01;;;;;;;;;;;;;;;8.27;45.03;103010.31;5076191;28;19920;-68
2023/05/07 06:23:26;;;;;;;;;;;;;;;8.14;45.66;103014.66;5075995;28;20034;-67
2023/05/07 06:25:52;;;;;;;;;;;;;;;8.00;45.49;103004.00;5076026;28;19912;-67
2023/05/07 06:28:17;;;;;;;;;;;;;;;7.93;45.55;103006.16;5074352;28;19920;-70
2023/05/07 06:30:42;;;;;;;;;;;;;;;7.80;45.05;103004.31;5075788;28;19919;-67
2023/05/07 06:33:08;;;;;;;;;;;;;;;7.83;45.50;103004.16;5075883;28;19966;-66
2023/05/07 06:35:33;;;;;;;;;;;;;;;7.90;45.27;103000.19;5075672;28;19934;-68
2023/05/07 06:37:59;;;;;;;;;;;;;;;8.05;44.48;102999.28;5074448;28;19923;-67
2023/05/07 06:40:25;;;;;;;;;;;;;;;8.34;43.30;103000.19;5076182;28;19923;-69
2023/05/07 06:42:50;;;;;;;;;;;;;;;8.51;43.19;102996.53;5075537;28;19928;-68
2023/05/07 06:45:15;;;;;;;;;;;;;;;8.55;41.58;102992.72;5075473;28;19913;-66
2023/05/07 06:47:40;;;;;;;;;;;;;;;8.49;42.06;102998.41;5075541;28;19916;-69
2023/05/07 06:50:06;;;;;;;;;;;;;;;8.45;42.47;102991.59;5075604;28;19917;-67
2023/05/07 06:52:31;;;;;;;;;;;;;;;8.29;42.66;103003.09;5075322;28;20271;-68
2023/05/07 06:54:57;;;;;;;;;;;;;;;8.00;42.51;103001.34;5075429;28;19973;-68
2023/05/07 06:57:22;;;;;;;;;;;;;;;7.76;43.34;102991.22;5075541;28;19913;-69
2023/05/07 06:59:47;;;;;;;;;;;;;;;7.75;42.81;102989.53;5075520;28;19913;-71
2023/05/07 07:02:13;;;;;;;;;;;;;;;7.80;42.73;102993.72;5075487;28;19951;-68
2023/05/07 07:04:38;;;;;;;;;;;;;;;7.89;42.61;102993.19;5074125;28;19912;-68
2023/05/07 07:07:03;;;;;;;;;;;;;;;7.98;42.66;102992.63;5075303;28;19916;-67
2023/05/07 07:09:29;;;;;;;;;;;;;;;8.01;42.14;102987.13;5075666;28;20368;-67
2023/05/07 07:11:54;;;;;;;;;;;;;;;8.07;40.94;102986.75;5075242;28;19922;-68
2023/05/07 07:14:20;;;;;;;;;;;;;;;8.14;42.11;102987.28;5075498;28;19952;-68
2023/05/07 07:16:46;;;;;;;;;;;;;;;8.25;41.00;102984.81;5076929;28;19912;-68
2023/05/07 07:19:12;;;;;;;;;;;;;;;8.30;41.14;102983.56;5075661;28;20372;-69
2023/05/07 07:21:37;;;;;;;;;;;;;;;8.30;40.67;102978.25;5075548;28;19958;-67
2023/05/07 07:24:02;;;;;;;;;;;;;;;8.33;40.31;102986.06;5075445;28;19912;-68
2023/05/07 07:26:28;;;;;;;;;;;;;;;8.37;42.91;102984.06;5074917;28;20375;-69
2023/05/07 07:28:53;;;;;;;;;;;;;;;8.47;43.81;102985.25;5076842;28;19912;-68
2023/05/07 07:31:18;;;;;;;;;;;;;;;8.65;43.54;102983.22;5076019;28;20001;-68
2023/05/07 07:33:44;;;;;;;;;;;;;;;8.84;43.05;102983.78;5074926;28;19917;-69
2023/05/07 07:36:09;;;;;;;;;;;;;;;9.05;43.95;102970.09;5074856;28;20350;-68
2023/05/07 07:38:34;;;;;;;;;;;;;;;9.41;44.54;102978.31;5075080;28;20351;-69
2023/05/07 07:41:01;;;;;;;;;;;;;;;9.81;43.59;102976.50;5075333;28;19913;-67
2023/05/07 07:43:26;;;;;;;;;;;;;;;10.14;42.50;102984.03;5074997;28;20292;-67
2023/05/07 07:45:51;;;;;;;;;;;;;;;10.40;41.30;102978.69;5074333;28;19935;-68
2023/05/07 07:48:17;;;;;;;;;;;;;;;10.41;40.72;102975.09;5074449;28;20275;-69
2023/05/07 07:50:42;;;;;;;;;;;;;;;10.25;39.55;102977.97;5074883;28;19916;-67
2023/05/07 07:53:08;;;;;;;;;;;;;;;10.04;41.53;102974.94;5075520;28;19999;-69
2023/05/07 07:55:37;;;;;;;;;;;;;;;9.84;42.61;102978.13;5075156;28;19913;-68
2023/05/07 07:58:03;;;;;;;;;;;;;;;9.69;42.91;102982.66;5075767;28;20014;-68
2023/05/07 08:00:28;;;;;;;;;;;;;;;9.44;44.06;102986.09;5074644;28;20010;-70
2023/05/07 08:02:53;;;;;;;;;;;;;;;9.36;43.48;102987.56;5074715;28;19917;-68
2023/05/07 08:05:19;;;;;;;;;;;;;;;9.42;43.88;102985.34;5075660;28;20367;-71
2023/05/07 08:07:44;;;;;;;;;;;;;;;9.41;44.39;102986.28;5074496;28;19923;-69
2023/05/07 08:10:10;;;;;;;;;;;;;;;9.51;44.45;102990.03;5074432;28;19921;-71
2023/05/07 08:12:35;;;;;;;;;;;;;;;9.59;44.29;102985.09;5073768;28;19916;-70
2023/05/07 08:15:00;;;;;;;;;;;;;;;9.55;44.83;102986.25;5073494;28;19968;-68
2023/05/07 08:17:26;;;;;;;;;;;;;;;9.35;45.81;102985.84;5073681;28;20318;-68
2023/05/07 08:19:51;;;;;;;;;;;;;;;9.14;45.97;102980.97;5073823;28;20271;-68
2023/05/07 08:22:18;;;;;;;;;;;;;;;9.02;45.93;102988.91;5073737;28;19952;-68
2023/05/07 08:24:43;;;;;;;;;;;;;;;9.00;45.82;102987.19;5073483;28;19916;-67
2023/05/07 08:27:09;;;;;;;;;;;;;;;9.10;45.28;102983.94;5072483;28;19966;-68
2023/05/07 08:29:34;;;;;;;;;;;;;;;9.42;45.22;102980.03;5073640;28;19920;-68
2023/05/07 08:31:59;;;;;;;;;;;;;;;9.87;43.40;102980.59;5073428;28;20045;-71
2023/05/07 08:34:24;;;;;;;;;;;;;;;10.25;42.56;102977.97;5073613;28;19913;-66
2023/05/07 08:36:50;;;;;;;;;;;;;;;10.46;41.94;102981.81;5073407;28;19920;-68
2023/05/07 08:39:16;;;;;;;;;;;;;;;10.51;41.98;102976.16;5073309;28;19982;-70
2023/05/07 08:41:44;;;;;;;;;;;;;;;10.43;43.08;102976.69;5073396;28;19920;-69
2023/05/07 08:44:11;;;;;;;;;;;;;;;10.41;43.15;102980.44;5072858;28;19916;-69
2023/05/07 08:46:39;;;;;;;;;;;;;;;10.43;43.33;102974.03;5073123;28;19939;-70
2023/05/07 08:49:05;;;;;;;;;;;;;;;10.47;42.69;102972.00;5073157;28;20339;-69
2023/05/07 08:51:31;;;;;;;;;;;;;;;10.32;43.73;102971.25;5073308;28;19959;-70
2023/05/07 08:53:56;;;;;;;;;;;;;;;10.18;43.98;102969.53;5072936;28;20280;-71
2023/05/07 08:56:21;;;;;;;;;;;;;;;10.22;44.79;102975.53;5072720;28;20015;-69
2023/05/07 08:58:47;;;;;;;;;;;;;;;10.16;43.35;102966.13;5072878;28;19966;-70
2023/05/07 09:01:13;;;;;;;;;;;;;;;10.22;43.70;102978.19;5072991;28;19963;-69
2023/05/07 09:03:39;;;;;;;;;;;;;;;10.20;44.15;102978.28;5072875;28;20007;-69
2023/05/07 09:06:05;;;;;;;;;;;;;;;10.06;43.90;102982.81;5072792;28;19947;-69
2023/05/07 09:08:32;;;;;;;;;;;;;;;9.94;44.75;102980.06;5072772;28;19935;-69
2023/05/07 09:10:57;;;;;;;;;;;;;;;9.91;44.31;102982.06;5072659;28;19913;-69
2023/05/07 09:13:22;;;;;;;;;;;;;;;10.04;44.64;102982.94;5072447;28;19965;-68
2023/05/07 09:15:49;;;;;;;;;;;;;;;10.23;44.59;102990.53;5072768;28;20399;-67
2023/05/07 09:18:15;;;;;;;;;;;;;;;10.46;43.46;102976.47;5072641;28;19923;-69
2023/05/07 09:20:40;;;;;;;;;;;;;;;10.63;43.70;102987.75;5072434;28;19919;-70
2023/05/07 09:23:07;;;;;;;;;;;;;;;10.84;43.39;102992.41;5072520;28;20009;-70
2023/05/07 09:25:33;;;;;;;;;;;;;;;10.72;41.68;102998.63;5072445;28;19930;-70
2023/05/07 09:27:59;;;;;;;;;;;;;;;10.68;38.95;102994.44;5072401;28;19919;-69
2023/05/07 09:30:27;;;;;;;;;;;;;;;10.62;38.10;102989.56;5072832;28;20011;-69
2023/05/07 09:32:53;;;;;;;;;;;;;;;10.71;40.26;102998.72;5072669;28;19917;-67
2023/05/07 09:35:21;;;;;;;;;;;;;;;10.84;40.59;102994.22;5071415;28;19958;-68
2023/05/07 09:37:46;;;;;;;;;;;;;;;11.00;39.13;102993.97;5072220;28;20027;-68
2023/05/07 09:40:22;;;;;;;;;;;;;;;11.09;39.78;102999.50;5072366;28;20364;-68
2023/05/07 09:42:49;;;;;;;;;;;;;;;11.17;38.77;102993.59;5072695;28;20395;-70
2023/05/07 09:45:14;;;;;;;;;;;;;;;11.13;38.63;103000.97;5072413;28;20468;-68
2023/05/07 09:47:44;;;;;;;;;;;;;;;11.11;38.70;103002.03;5072343;28;19916;-69
2023/05/07 09:50:10;;;;;;;;;;;;;;;11.18;38.30;102995.28;5072359;28;19916;-68
2023/05/07 09:52:36;;;;;;;;;;;;;;;11.30;38.61;103010.41;5104660;28;19918;-68
2023/05/07 09:55:02;;;;;;;;;;;;;;;11.23;35.46;102995.81;5072492;28;20015;-68
2023/05/07 09:57:30;;;;;;;;;;;;;;;11.45;34.08;103011.09;5072452;28;19913;-70
2023/05/07 09:59:56;;;;;;;;;;;;;;;11.46;32.39;102996.78;5072334;28;19955;-69
2023/05/07 10:02:23;;;;;;;;;;;;;;;11.37;32.26;102998.31;5072224;28;19919;-66
2023/05/07 10:04:49;;;;;;;;;;;;;;;11.24;31.00;102999.31;5072211;28;19951;-69
2023/05/07 10:07:16;;;;;;;;;;;;;;;11.19;31.25;102994.31;5072049;28;19912;-69
2023/05/07 10:09:43;;;;;;;;;;;;;;;11.17;32.23;102997.09;5072488;28;20007;-69
2023/05/07 10:12:09;;;;;;;;;;;;;;;11.35;32.47;102994.06;5072352;28;19913;-68
2023/05/07 10:14:34;;;;;;;;;;;;;;;11.25;31.14;102990.34;5072314;28;19970;-68
2023/05/07 10:17:01;;;;;;;;;;;;;;;11.15;30.99;103006.19;5071958;28;19924;-66
2023/05/07 10:19:28;;;;;;;;;;;;;;;10.84;30.86;102999.53;5072072;28;20003;-68
2023/05/07 10:21:59;;;;;;;;;;;;;;;10.68;30.43;102999.78;5072098;28;20335;-69
2023/05/07 10:24:34;;;;;;;;;;;;;;;10.62;29.46;102994.03;5072016;28;19948;-67
2023/05/07 10:27:00;;;;;;;;;;;;;;;10.62;29.56;102994.03;5072026;28;19916;-68
2023/05/07 10:29:29;;;;;;;;;;;;;;;10.52;30.21;102993.84;5072000;28;19913;-70
2023/05/07 10:32:14;;;;;;;;;;;;;;;10.41;30.18;102991.94;5070612;28;19948;-69
2023/05/07 10:34:41;;;;;;;;;;;;;;;10.39;29.98;102992.97;5074638;28;20011;-68
2023/05/07 10:37:07;;;;;;;;;;;;;;;10.44;30.36;102989.06;5072339;28;19913;-67
2023/05/07 10:39:33;;;;;;;;;;;;;;;10.60;29.76;102985.31;5071982;28;19913;-69
2023/05/07 10:42:07;;;;;;;;;;;;;;;10.74;29.46;102983.38;5071873;28;19935;-69
2023/05/07 10:44:32;;;;;;;;;;;;;;;10.88;29.03;102979.69;5071777;28;19921;-66
2023/05/07 10:47:09;;;;;;;;;;;;;;;11.05;30.05;102987.34;5070163;28;19997;-67
2023/05/07 10:49:57;;;;;;;;;;;;;;;11.15;29.18;102976.84;5073296;28;19923;-69
2023/05/07 10:52:24;;;;;;;;;;;;;;;11.33;29.97;102974.66;5083653;28;19951;-67
2023/05/07 10:55:09;;;;;;;;;;;;;;;11.34;27.33;102977.22;5075411;28;20352;-67
2023/05/07 10:57:38;;;;;;;;;;;;;;;11.19;27.67;102973.00;5075864;28;20010;-68
2023/05/07 11:00:03;;;;;;;;;;;;;;;11.18;27.94;102987.28;5074324;28;19947;-68
2023/05/07 11:02:49;;;;;;;;;;;;;;;11.22;28.48;102969.25;5075309;28;19919;-69
2023/05/07 11:05:24;;;;;;;;;;;;;;;11.35;28.36;102973.56;5075045;28;20364;-67
2023/05/07 11:08:07;;;;;;;;;;;;;;;11.30;28.17;102970.41;5074957;28;19913;-69
2023/05/07 11:10:59;;;;;;;;;;;;;;;11.24;27.70;102964.63;5075399;28;19912;-69
2023/05/07 11:13:43;;;;;;;;;;;;;;;11.31;27.82;102965.91;5075812;28;19916;-70
2023/05/07 11:16:18;;;;;;;;;;;;;;;11.21;27.27;102965.72;5074867;28;19966;-67
2023/05/07 11:18:51;;;;;;;;;;;;;;;11.10;27.76;102969.19;5075183;28;19923;-68
2023/05/07 11:21:42;;;;;;;;;;;;;;;11.05;28.16;102960.69;5075206;28;19967;-69
2023/05/07 11:24:09;;;;;;;;;;;;;;;11.01;27.40;102964.53;5075373;28;19920;-70
2023/05/07 11:26:45;;;;;;;;;;;;;;;10.96;27.83;102963.16;5074617;28;19959;-68
2023/05/07 11:29:14;;;;;;;;;;;;;;;10.75;28.29;102969.09;5074976;28;19912;-68
2023/05/07 11:31:40;;;;;;;;;;;;;;;10.68;29.05;102973.13;5075022;28;19913;-68
2023/05/07 11:34:05;;;;;;;;;;;;;;;10.67;29.00;102976.75;5074667;28;19912;-67
2023/05/07 11:36:32;;;;;;;;;;;;;;;10.66;28.03;102972.38;5074668;28;19913;-68
2023/05/07 11:38:57;;;;;;;;;;;;;;;10.52;28.23;102969.88;5074459;28;19951;-70
2023/05/07 11:41:22;;;;;;;;;;;;;;;10.56;28.98;102974.00;5090265;28;19982;-69
2023/05/07 11:43:55;;;;;;;;;;;;;;;10.62;28.90;102973.56;5074612;28;19912;-69
2023/05/07 11:46:21;;;;;;;;;;;;;;;10.69;29.01;102974.81;5073207;28;19958;-68
2023/05/07 11:48:47;;;;;;;;;;;;;;;10.74;27.86;102970.03;5074404;28;19916;-68
2023/05/07 11:51:13;;;;;;;;;;;;;;;10.82;27.52;102974.81;5074288;28;19918;-67
2023/05/07 11:53:42;;;;;;;;;;;;;;;10.94;28.21;102975.72;5074364;28;20284;-68
2023/05/07 11:56:08;;;;;;;;;;;;;;;11.11;27.51;102970.03;5074361;28;20376;-67
2023/05/07 11:58:34;;;;;;;;;;;;;;;11.35;26.96;102978.06;5074496;28;19919;-68
2023/05/07 12:00:59;;;;;;;;;;;;;;;11.62;27.21;102973.31;5073946;28;19916;-69
2023/05/07 12:03:24;;;;;;;;;;;;;;;11.87;27.15;102968.84;5074196;28;19928;-67
2023/05/07 12:05:50;;;;;;;;;;;;;;;11.97;26.82;102981.34;5074251;28;19912;-69
2023/05/07 12:08:19;;;;;;;;;;;;;;;11.86;27.13;102977.81;5074101;28;19912;-68
2023/05/07 12:10:45;;;;;;;;;;;;;;;11.94;26.96;102981.59;5074252;28;20279;-68
2023/05/07 12:13:24;;;;;;;;;;;;;;;11.95;26.99;102975.28;5074198;28;19913;-67
2023/05/07 12:15:53;;;;;;;;;;;;;;;12.10;27.97;102976.75;5074034;28;19920;-68
2023/05/07 12:18:19;;;;;;;;;;;;;;;12.10;27.11;102976.75;5074161;28;19916;-68
2023/05/07 12:20:45;;;;;;;;;;;;;;;11.97;27.55;102976.00;5073749;28;19923;-66
2023/05/07 12:23:11;;;;;;;;;;;;;;;11.75;27.94;102971.41;5073837;28;19999;-67
2023/05/07 12:25:39;;;;;;;;;;;;;;;11.44;27.52;102970.22;5073752;28;19934;-68
2023/05/07 12:28:05;;;;;;;;;;;;;;;11.02;28.57;102970.72;5073716;28;19940;-68
2023/05/07 12:30:40;;;;;;;;;;;;;;;10.52;28.62;102976.03;5073659;28;19952;-69
2023/05/07 12:33:05;;;;;;;;;;;;;;;10.38;29.77;102970.81;5073550;28;19920;-70
2023/05/07 12:35:32;;;;;;;;;;;;;;;10.33;29.00;102972.97;5073908;28;19966;-68
2023/05/07 12:37:59;;;;;;;;;;;;;;;10.43;29.17;102965.19;5073750;28;20324;-68
2023/05/07 12:40:34;;;;;;;;;;;;;;;10.53;29.41;102963.56;5073592;28;19917;-69